Hlavní strana
METAR-TAF:

METAR-TAF

Letiště :

Sundsvall-Härnösand, Švédsko

zeměpisná šířka: 62-32N, zeměpisná délka: 017-27E, výška: 4 m

Aktuální stav počasí

Zpráva byla vytvořena před 15 minutami, v 04:50 UTC
vítr z různých směrů 2 kt
Teplota -6°C
Vlhkost vzduchu 86%
Tlak 1026 hPa
Viditelnost 10 km a více

METAR: ESNN 050450Z AUTO VRB02KT 9999 NCD M06/M08 Q1026

Čas: 07:05 (05:05 UTC)


TAF: chybějící

Stav a předpovědi počasí z více než 4 000 letišť (zprávy METAR a TAF).

Červené a žluté tečky na mapě představují dostupné meteorologické stanice.

Když kurzor umístíte na tečku, zobrazí se název stanice.

Pak kliknutím zobrazíte stav a předpověď počasí.

Chcete-li změnit mapu, kliknutím na zelené tlačítko se znaménkem +mapu přiblížíte, kliknutím na zelené tlačítko se znaménkem – mapu oddálíte a kliknutím na zelené šipky přejdete na sousední mapy.


METAR-TAF: